createdAt,value
2023-04-04T00:01:42.997Z,72.42
2023-04-04T00:04:09.435Z,72.27
2023-04-04T00:06:36.553Z,72.62
2023-04-04T00:09:02.975Z,72.58
2023-04-04T00:11:29.390Z,71.79
2023-04-04T00:13:55.860Z,72.75
2023-04-04T00:16:22.369Z,72.10
2023-04-04T00:18:48.892Z,72.58
2023-04-04T00:21:15.357Z,72.46
2023-04-04T00:23:41.736Z,72.34
2023-04-04T00:26:08.119Z,72.27
2023-04-04T00:28:34.552Z,72.23
2023-04-04T00:31:01.482Z,71.45
2023-04-04T00:33:27.912Z,72.24
2023-04-04T00:35:54.748Z,72.13
2023-04-04T00:38:21.208Z,72.27
2023-04-04T00:40:50.409Z,71.54
2023-04-04T00:43:18.381Z,71.53
2023-04-04T00:45:45.013Z,70.87
2023-04-04T00:48:12.024Z,71.98
2023-04-04T00:50:38.687Z,72.23
2023-04-04T00:53:05.468Z,72.39
2023-04-04T00:55:32.513Z,71.97
2023-04-04T00:58:00.224Z,71.65
2023-04-04T01:00:27.476Z,71.43
2023-04-04T01:02:53.967Z,72.30
2023-04-04T01:05:20.506Z,72.39
2023-04-04T01:07:47.015Z,72.07
2023-04-04T01:10:13.458Z,71.57
2023-04-04T01:12:41.568Z,72.72
2023-04-04T01:15:08.620Z,72.86
2023-04-04T01:17:35.789Z,72.94
2023-04-04T01:20:17.237Z,72.36
2023-04-04T01:22:46.200Z,72.74
2023-04-04T01:25:14.484Z,73.28
2023-04-04T01:27:41.423Z,73.53
2023-04-04T01:30:08.971Z,73.94
2023-04-04T01:32:45.871Z,73.47
2023-04-04T01:35:27.385Z,72.91
2023-04-04T01:37:59.838Z,72.85
2023-04-04T01:40:35.008Z,73.41
2023-04-04T01:43:01.853Z,73.01
2023-04-04T01:45:29.604Z,72.73
2023-04-04T01:47:57.066Z,72.98
2023-04-04T01:50:23.660Z,73.19
2023-04-04T01:52:50.139Z,73.57
2023-04-04T01:55:16.614Z,74.30
2023-04-04T01:57:43.095Z,74.07
2023-04-04T02:00:10.954Z,75.04
2023-04-04T02:02:37.408Z,76.05
2023-04-04T02:05:04.186Z,76.48
2023-04-04T02:07:30.591Z,76.49
2023-04-04T02:09:57.871Z,76.63
2023-04-04T02:12:24.271Z,76.91
2023-04-04T02:14:50.773Z,77.01
2023-04-04T02:17:17.149Z,76.86
2023-04-04T02:19:43.730Z,77.24
2023-04-04T02:22:10.325Z,77.69
2023-04-04T02:24:36.702Z,77.55
2023-04-04T02:27:04.451Z,77.47
2023-04-04T02:29:31.065Z,77.50
2023-04-04T02:31:57.485Z,77.31
2023-04-04T02:34:23.957Z,77.21
2023-04-04T02:36:50.547Z,77.54
2023-04-04T02:39:16.926Z,78.08
2023-04-04T02:41:43.337Z,78.97
2023-04-04T02:44:10.142Z,77.63
2023-04-04T02:46:36.763Z,77.73
2023-04-04T02:49:03.699Z,78.16
2023-04-04T02:51:30.152Z,77.62
2023-04-04T02:53:56.583Z,78.29
2023-04-04T02:56:23.058Z,78.36
2023-04-04T02:58:49.449Z,78.76
2023-04-04T03:01:16.167Z,77.59
2023-04-04T03:03:42.743Z,78.50
2023-04-04T03:06:09.167Z,77.99
2023-04-04T03:08:38.389Z,77.83
2023-04-04T03:11:04.875Z,77.78
2023-04-04T03:13:31.393Z,77.25
2023-04-04T03:16:00.054Z,77.62
2023-04-04T03:18:26.675Z,77.19
2023-04-04T03:20:53.054Z,76.99
2023-04-04T03:23:19.429Z,77.17
2023-04-04T03:25:46.375Z,77.19
2023-04-04T03:28:13.526Z,78.32
2023-04-04T03:30:40.068Z,78.52
2023-04-04T03:33:09.936Z,77.42
2023-04-04T03:35:40.557Z,77.29
2023-04-04T03:38:07.909Z,78.29
2023-04-04T03:40:34.390Z,78.64
2023-04-04T03:43:02.375Z,78.54
2023-04-04T03:45:30.260Z,78.61
2023-04-04T03:47:56.695Z,78.65
2023-04-04T03:50:23.182Z,78.96
2023-04-04T03:52:49.629Z,79.28
2023-04-04T03:55:16.246Z,79.14
2023-04-04T03:57:42.789Z,79.59
2023-04-04T04:00:09.802Z,79.55
2023-04-04T04:02:36.373Z,79.82
2023-04-04T04:05:03.723Z,80.06
2023-04-04T04:07:30.144Z,80.03
2023-04-04T04:09:56.977Z,79.86
2023-04-04T04:12:23.677Z,79.79
2023-04-04T04:14:50.113Z,79.72
2023-04-04T04:17:16.502Z,79.49
2023-04-04T04:19:42.920Z,79.98
2023-04-04T04:22:10.241Z,80.36
2023-04-04T04:24:36.697Z,81.11
2023-04-04T04:27:03.078Z,81.02
2023-04-04T04:29:30.256Z,81.52
2023-04-04T04:31:57.779Z,81.27
2023-04-04T04:34:24.453Z,81.55
2023-04-04T04:36:50.850Z,82.61
2023-04-04T04:39:17.250Z,82.27
2023-04-04T04:41:43.658Z,82.26
2023-04-04T04:44:10.093Z,83.63
2023-04-04T04:46:36.635Z,83.70
2023-04-04T04:49:03.480Z,83.02
2023-04-04T04:51:29.966Z,81.95
2023-04-04T04:53:56.452Z,81.74
2023-04-04T04:56:22.891Z,81.58
2023-04-04T04:58:50.990Z,81.78
2023-04-04T05:01:17.666Z,81.42
2023-04-04T05:03:44.132Z,82.56
2023-04-04T05:06:10.648Z,82.49
2023-04-04T05:08:37.186Z,82.76
2023-04-04T05:11:05.311Z,82.83
2023-04-04T05:13:32.181Z,83.36
2023-04-04T05:15:58.576Z,83.66
2023-04-04T05:18:26.422Z,83.73
2023-04-04T05:20:54.675Z,83.36
2023-04-04T05:23:21.681Z,83.54
2023-04-04T05:25:53.306Z,83.56
2023-04-04T05:28:20.807Z,83.91
2023-04-04T05:30:47.521Z,84.84
2023-04-04T05:33:13.954Z,84.51
2023-04-04T05:35:41.279Z,83.88
2023-04-04T05:38:07.858Z,84.09
2023-04-04T05:40:34.289Z,84.88
2023-04-04T05:43:04.160Z,85.35
2023-04-04T05:45:31.689Z,85.64
2023-04-04T05:47:58.268Z,85.53
2023-04-04T05:50:24.778Z,85.04
2023-04-04T05:52:53.968Z,84.39
2023-04-04T05:55:20.460Z,85.33
2023-04-04T05:57:50.820Z,85.10
2023-04-04T06:00:18.418Z,84.46
2023-04-04T06:02:45.304Z,84.33
2023-04-04T06:05:11.876Z,84.97
2023-04-04T06:07:38.333Z,85.15
2023-04-04T06:10:06.141Z,85.63
2023-04-04T06:12:32.553Z,85.58
2023-04-04T06:14:58.963Z,85.32
2023-04-04T06:17:25.527Z,85.50
2023-04-04T06:19:52.857Z,85.70
2023-04-04T06:22:19.244Z,85.48
2023-04-04T06:24:45.657Z,85.76
2023-04-04T06:27:12.051Z,85.58
2023-04-04T06:29:38.423Z,85.45
2023-04-04T06:32:05.375Z,85.07
2023-04-04T06:34:31.929Z,84.85
2023-04-04T06:36:58.335Z,84.70
2023-04-04T06:39:24.779Z,83.82
2023-04-04T06:41:51.259Z,83.22
2023-04-04T06:44:17.691Z,84.03
2023-04-04T06:46:44.735Z,83.82
2023-04-04T06:49:11.577Z,82.85
2023-04-04T06:51:39.938Z,82.05
2023-04-04T06:54:06.427Z,81.90
2023-04-04T06:56:32.904Z,81.24
2023-04-04T06:58:59.397Z,81.10
2023-04-04T07:01:26.258Z,80.26
2023-04-04T07:03:54.131Z,80.93
2023-04-04T07:06:25.780Z,81.27
2023-04-04T07:08:52.937Z,80.00
2023-04-04T07:11:19.493Z,77.86
2023-04-04T07:13:45.945Z,77.35
2023-04-04T07:16:12.360Z,77.33
2023-04-04T07:18:38.774Z,76.54
2023-04-04T07:21:05.405Z,75.79
2023-04-04T07:23:31.904Z,76.99
2023-04-04T07:25:59.490Z,73.79
2023-04-04T07:28:26.131Z,73.61
2023-04-04T07:30:52.582Z,75.09
2023-04-04T07:33:18.991Z,73.52
2023-04-04T07:35:45.456Z,73.92
2023-04-04T07:38:11.834Z,74.82
2023-04-04T07:40:38.636Z,73.75
2023-04-04T07:43:05.217Z,72.96
2023-04-04T07:45:31.632Z,72.28
2023-04-04T07:47:58.222Z,72.09
2023-04-04T07:50:24.632Z,71.34
2023-04-04T07:52:55.891Z,70.04
2023-04-04T07:55:25.194Z,70.69
2023-04-04T07:57:52.607Z,69.33
2023-04-04T08:00:21.769Z,68.91
2023-04-04T08:02:55.820Z,66.00
2023-04-04T08:05:22.508Z,62.44
2023-04-04T08:07:48.994Z,58.80
2023-04-04T08:10:17.610Z,61.69
2023-04-04T08:12:47.868Z,56.23
2023-04-04T08:15:14.681Z,61.09
2023-04-04T08:17:43.238Z,60.35
2023-04-04T08:20:10.528Z,59.92
2023-04-04T08:22:37.075Z,56.95
2023-04-04T08:25:03.734Z,57.30
2023-04-04T08:27:30.215Z,55.25
2023-04-04T08:29:57.097Z,55.90
2023-04-04T08:32:23.717Z,55.13
2023-04-04T08:34:51.079Z,51.85
2023-04-04T08:37:18.179Z,55.08
2023-04-04T08:39:45.373Z,52.81
2023-04-04T08:42:16.807Z,51.64
2023-04-04T08:44:45.460Z,54.74
2023-04-04T08:47:13.462Z,56.28
2023-04-04T08:49:43.684Z,50.81
2023-04-04T08:52:12.395Z,53.97
2023-04-04T08:54:40.600Z,54.37
2023-04-04T08:57:10.820Z,51.76
2023-04-04T08:59:37.885Z,51.34
2023-04-04T09:02:17.751Z,51.93
2023-04-04T09:04:54.565Z,48.81
2023-04-04T09:07:31.104Z,52.88
2023-04-04T09:09:58.351Z,51.51
2023-04-04T09:12:26.396Z,52.85
2023-04-04T09:14:55.491Z,53.11
2023-04-04T09:17:21.958Z,51.52
2023-04-04T09:19:48.366Z,53.72
2023-04-04T09:22:16.113Z,52.21
2023-04-04T09:24:43.619Z,51.63
2023-04-04T09:27:15.443Z,48.43
2023-04-04T09:29:42.425Z,51.05
2023-04-04T09:32:10.328Z,51.64
2023-04-04T09:34:37.900Z,51.08
2023-04-04T09:37:05.967Z,52.16
2023-04-04T09:39:34.164Z,52.73
2023-04-04T09:42:01.835Z,50.77
2023-04-04T09:44:33.184Z,50.20
2023-04-04T09:47:29.570Z,46.46
2023-04-04T09:50:01.371Z,50.26
2023-04-04T09:52:33.080Z,48.06
2023-04-04T09:55:01.468Z,48.01
2023-04-04T09:57:34.374Z,49.40
2023-04-04T10:00:07.070Z,48.74
2023-04-04T10:02:33.986Z,49.18
2023-04-04T10:07:32.104Z,45.92
2023-04-04T10:10:02.372Z,48.07
2023-04-04T10:12:30.507Z,46.68
2023-04-04T10:14:59.255Z,45.72
2023-04-04T10:17:39.437Z,45.04
2023-04-04T10:20:13.689Z,48.00
2023-04-04T10:22:42.489Z,47.56
2023-04-04T10:25:10.441Z,46.83
2023-04-04T10:27:38.658Z,44.86
2023-04-04T10:30:05.661Z,47.35
2023-04-04T10:32:51.360Z,45.61
2023-04-04T10:35:22.564Z,45.80
2023-04-04T10:37:58.450Z,44.19
2023-04-04T10:40:29.713Z,44.10
2023-04-04T10:42:57.599Z,44.71
2023-04-04T10:45:25.860Z,44.02
2023-04-04T10:47:53.201Z,47.00
2023-04-04T10:50:20.783Z,44.85
2023-04-04T10:52:48.032Z,47.57
2023-04-04T10:55:15.919Z,44.67
2023-04-04T10:57:45.328Z,44.24
2023-04-04T11:00:14.739Z,45.38
2023-04-04T11:02:55.049Z,45.46
2023-04-04T11:05:27.876Z,45.28
2023-04-04T11:10:36.159Z,44.89
2023-04-04T11:13:13.376Z,44.67
2023-04-04T11:15:58.096Z,43.32
2023-04-04T11:18:42.448Z,45.55
2023-04-04T11:21:27.762Z,43.39
2023-04-04T11:23:54.126Z,43.20
2023-04-04T11:26:27.620Z,44.46
2023-04-04T11:28:58.420Z,45.60
2023-04-04T11:31:30.132Z,44.61
2023-04-04T11:34:04.881Z,43.83
2023-04-04T11:36:41.494Z,44.79
2023-04-04T11:39:30.581Z,41.45
2023-04-04T11:42:03.785Z,40.22
2023-04-04T11:44:32.072Z,43.15
2023-04-04T11:47:09.170Z,44.10
2023-04-04T11:49:43.008Z,42.57
2023-04-04T11:52:11.972Z,42.63
2023-04-04T11:54:39.624Z,43.50
2023-04-04T11:57:07.331Z,42.76
2023-04-04T11:59:34.840Z,43.37
2023-04-04T12:02:03.043Z,42.28
2023-04-04T12:04:30.890Z,43.35
2023-04-04T12:06:57.725Z,43.06
2023-04-04T12:09:26.338Z,41.85
2023-04-04T12:11:54.392Z,41.25
2023-04-04T12:14:22.889Z,40.74
2023-04-04T12:16:54.810Z,40.90
2023-04-04T12:19:23.996Z,39.86
2023-04-04T12:21:52.363Z,40.81
2023-04-04T12:24:19.520Z,41.26
2023-04-04T12:26:49.147Z,39.14
2023-04-04T12:29:17.214Z,38.46
2023-04-04T12:31:45.597Z,40.25
2023-04-04T12:34:19.159Z,40.95
2023-04-04T12:36:49.710Z,39.37
2023-04-04T12:39:16.794Z,40.10
2023-04-04T12:41:55.233Z,40.35
2023-04-04T12:44:37.686Z,37.63
2023-04-04T12:47:06.666Z,39.01
2023-04-04T12:49:42.704Z,39.31
2023-04-04T12:52:20.712Z,38.72
2023-04-04T12:57:36.699Z,38.74
2023-04-04T13:00:06.463Z,38.94
2023-04-04T13:02:35.678Z,39.09
2023-04-04T13:05:03.689Z,36.71
2023-04-04T13:07:35.662Z,37.92
2023-04-04T13:10:04.725Z,37.72
2023-04-04T13:12:59.424Z,35.93
2023-04-04T13:15:52.234Z,35.32
2023-04-04T13:18:21.910Z,36.77
2023-04-04T13:20:49.120Z,35.07
2023-04-04T13:23:16.289Z,35.75
2023-04-04T13:25:43.098Z,36.29
2023-04-04T13:28:12.908Z,36.64
2023-04-04T13:30:43.492Z,37.05
2023-04-04T13:33:10.149Z,36.77
2023-04-04T13:35:37.198Z,35.71
2023-04-04T13:38:03.614Z,35.83
2023-04-04T13:40:30.119Z,36.22
2023-04-04T13:42:56.647Z,36.21
2023-04-04T13:45:24.456Z,36.31
2023-04-04T13:47:50.883Z,36.86
2023-04-04T13:50:18.173Z,37.07
2023-04-04T13:52:44.605Z,36.68
2023-04-04T13:55:11.616Z,36.94
2023-04-04T13:57:37.995Z,36.85
2023-04-04T14:00:05.580Z,36.37
2023-04-04T14:02:32.246Z,36.20
2023-04-04T14:04:58.633Z,36.41
2023-04-04T14:07:25.051Z,35.33
2023-04-04T14:09:51.770Z,35.71
2023-04-04T14:12:18.335Z,36.68
2023-04-04T14:14:44.747Z,36.70
2023-04-04T14:17:11.239Z,35.51
2023-04-04T14:19:38.778Z,36.72
2023-04-04T14:22:05.918Z,36.22
2023-04-04T14:24:32.351Z,35.35
2023-04-04T14:26:58.751Z,35.55
2023-04-04T14:29:25.134Z,35.11
2023-04-04T14:31:51.750Z,35.95
2023-04-04T14:34:18.274Z,36.56
2023-04-04T14:36:44.829Z,36.07
2023-04-04T14:39:11.297Z,36.54
2023-04-04T14:41:37.705Z,36.19
2023-04-04T14:44:04.186Z,36.67
2023-04-04T14:46:31.139Z,36.30
2023-04-04T14:48:58.128Z,34.29
2023-04-04T14:51:24.686Z,36.15
2023-04-04T14:53:52.823Z,35.82
2023-04-04T14:56:21.179Z,36.53
2023-04-04T14:58:50.288Z,36.89
2023-04-04T15:01:17.431Z,35.97
2023-04-04T15:03:43.890Z,36.45
2023-04-04T15:06:10.411Z,36.81
2023-04-04T15:08:37.052Z,36.68
2023-04-04T15:11:03.688Z,36.48
2023-04-04T15:13:30.526Z,36.82
2023-04-04T15:15:57.446Z,35.69
2023-04-04T15:18:24.038Z,36.66
2023-04-04T15:20:50.584Z,35.63
2023-04-04T15:23:17.174Z,36.44
2023-04-04T15:25:43.755Z,36.36
2023-04-04T15:28:10.334Z,35.69
2023-04-04T15:30:36.851Z,36.30
2023-04-04T15:33:03.317Z,36.25
2023-04-04T15:35:29.749Z,36.06
2023-04-04T15:37:56.162Z,37.23
2023-04-04T15:40:22.693Z,36.77
2023-04-04T15:42:49.194Z,37.13
2023-04-04T15:45:16.544Z,36.86
2023-04-04T15:47:43.595Z,36.56
2023-04-04T15:50:11.643Z,37.21
2023-04-04T15:52:38.546Z,36.13
2023-04-04T15:55:10.330Z,36.37
2023-04-04T15:57:36.732Z,36.15
2023-04-04T16:00:03.766Z,36.59
2023-04-04T16:02:31.816Z,35.99
2023-04-04T16:04:58.307Z,37.08
2023-04-04T16:07:24.683Z,37.18
2023-04-04T16:09:51.380Z,37.32
2023-04-04T16:12:17.850Z,36.11
2023-04-04T16:14:44.225Z,37.17
2023-04-04T16:17:10.933Z,37.30
2023-04-04T16:19:37.332Z,37.09
2023-04-04T16:22:05.383Z,35.75
2023-04-04T16:24:32.224Z,36.59
2023-04-04T16:26:58.663Z,37.27
2023-04-04T16:29:25.142Z,36.55
2023-04-04T16:31:53.129Z,36.20
2023-04-04T16:34:19.593Z,37.13
2023-04-04T16:36:46.225Z,37.67
2023-04-04T16:39:13.292Z,37.64
2023-04-04T16:41:40.957Z,37.96
2023-04-04T16:44:07.417Z,38.43
2023-04-04T16:46:33.867Z,38.13
2023-04-04T16:49:00.363Z,38.41
2023-04-04T16:51:27.748Z,37.76
2023-04-04T16:53:54.190Z,38.78
2023-04-04T16:56:20.599Z,38.64
2023-04-04T16:58:47.173Z,38.26
2023-04-04T17:01:15.038Z,38.79
2023-04-04T17:03:41.569Z,39.73
2023-04-04T17:06:08.240Z,39.94
2023-04-04T17:08:34.620Z,39.92
2023-04-04T17:11:01.453Z,40.13
2023-04-04T17:13:27.876Z,40.64
2023-04-04T17:15:54.281Z,40.90
2023-04-04T17:18:20.664Z,41.23
2023-04-04T17:20:48.944Z,41.20
2023-04-04T17:23:15.405Z,40.63
2023-04-04T17:25:41.817Z,41.16
2023-04-04T17:28:08.338Z,41.34
2023-04-04T17:30:34.980Z,41.93
2023-04-04T17:33:01.415Z,41.83
2023-04-04T17:35:27.989Z,41.88
2023-04-04T17:37:54.671Z,41.88
2023-04-04T17:40:21.254Z,42.36
2023-04-04T17:42:47.748Z,42.52
2023-04-04T17:45:14.624Z,42.16
2023-04-04T17:47:41.048Z,42.41
2023-04-04T17:50:07.887Z,42.73
2023-04-04T17:52:34.273Z,42.73
2023-04-04T17:55:00.673Z,43.46
2023-04-04T17:57:27.197Z,43.41
2023-04-04T17:59:53.719Z,43.90
2023-04-04T18:02:20.546Z,43.67
2023-04-04T18:04:47.354Z,43.58
2023-04-04T18:07:14.315Z,43.41
2023-04-04T18:09:41.149Z,43.51
2023-04-04T18:12:07.913Z,43.44
2023-04-04T18:14:34.308Z,43.73
2023-04-04T18:17:00.847Z,43.92
2023-04-04T18:19:27.294Z,44.06
2023-04-04T18:21:54.292Z,44.02
2023-04-04T18:24:21.116Z,43.88
2023-04-04T18:26:47.533Z,44.19
2023-04-04T18:29:14.876Z,44.32
2023-04-04T18:31:41.394Z,44.41
2023-04-04T18:34:46.164Z,44.38
2023-04-04T18:37:12.703Z,44.63
2023-04-04T18:39:39.078Z,44.52
2023-04-04T18:42:05.539Z,44.43
2023-04-04T18:44:32.907Z,44.79
2023-04-04T18:47:04.003Z,45.21
2023-04-04T18:49:31.207Z,44.94
2023-04-04T18:51:58.142Z,44.91
2023-04-04T18:54:26.036Z,45.10
2023-04-04T18:56:53.921Z,45.59
2023-04-04T18:59:22.456Z,45.62
2023-04-04T19:01:48.998Z,45.62
2023-04-04T19:04:19.685Z,45.62
2023-04-04T19:06:48.729Z,46.08
2023-04-04T19:09:15.384Z,46.13
2023-04-04T19:11:42.964Z,46.32
2023-04-04T19:14:09.551Z,46.41
2023-04-04T19:16:36.084Z,46.40
2023-04-04T19:19:02.519Z,47.26
2023-04-04T19:21:28.982Z,47.39
2023-04-04T19:23:55.423Z,47.67
2023-04-04T19:26:21.831Z,47.51
2023-04-04T19:28:48.317Z,47.31
2023-04-04T19:31:22.323Z,47.49
2023-04-04T19:33:54.938Z,47.04
2023-04-04T19:36:21.997Z,47.26
2023-04-04T19:38:49.264Z,47.39
2023-04-04T19:41:18.686Z,47.00
2023-04-04T19:43:46.961Z,47.14
2023-04-04T19:46:28.959Z,47.13
2023-04-04T19:49:00.116Z,46.77
2023-04-04T19:51:27.438Z,46.49
2023-04-04T19:53:55.563Z,46.69
2023-04-04T19:56:24.548Z,46.23
2023-04-04T19:58:54.544Z,46.77
2023-04-04T20:01:23.124Z,46.67
2023-04-04T20:03:49.767Z,46.83
2023-04-04T20:06:22.223Z,47.28
2023-04-04T20:08:51.732Z,47.63
2023-04-04T20:11:21.639Z,47.45
2023-04-04T20:13:49.960Z,48.37
2023-04-04T20:16:17.298Z,48.19
2023-04-04T20:18:46.081Z,48.31
2023-04-04T20:21:24.182Z,48.04
2023-04-04T20:23:53.222Z,48.09
2023-04-04T20:26:38.149Z,48.61
2023-04-04T20:29:13.627Z,48.69
2023-04-04T20:31:44.415Z,48.81
2023-04-04T20:34:52.930Z,49.23
2023-04-04T20:37:24.901Z,49.28
2023-04-04T20:39:54.105Z,49.21
2023-04-04T20:42:29.820Z,49.15
2023-04-04T20:45:00.930Z,49.55
2023-04-04T20:47:51.576Z,49.99
2023-04-04T20:50:18.416Z,49.84
2023-04-04T20:53:03.007Z,50.58
2023-04-04T20:55:31.556Z,50.57
2023-04-04T20:58:27.399Z,50.72
2023-04-04T21:00:55.152Z,50.73
2023-04-04T21:03:32.575Z,51.18
2023-04-04T21:06:10.654Z,51.18
2023-04-04T21:08:38.322Z,51.17
2023-04-04T21:11:06.678Z,51.36
2023-04-04T21:13:38.626Z,51.24
2023-04-04T21:16:13.582Z,50.84
2023-04-04T21:18:41.434Z,50.83
2023-04-04T21:21:19.522Z,51.43
2023-04-04T21:23:47.203Z,51.67
2023-04-04T21:26:34.572Z,51.68
2023-04-04T21:29:08.525Z,51.20
2023-04-04T21:31:37.817Z,51.30
2023-04-04T21:34:25.480Z,51.34
2023-04-04T21:37:00.554Z,51.16
2023-04-04T21:39:30.615Z,51.56
2023-04-04T21:42:03.719Z,51.99
2023-04-04T21:44:31.928Z,52.33
2023-04-04T21:46:58.389Z,52.46
2023-04-04T21:49:25.339Z,52.80
2023-04-04T21:51:52.173Z,53.54
2023-04-04T21:54:19.129Z,53.74
2023-04-04T21:56:46.332Z,54.00
2023-04-04T21:59:12.862Z,53.49
2023-04-04T22:01:40.569Z,54.75
2023-04-04T22:04:07.215Z,54.27
2023-04-04T22:06:33.723Z,53.94
2023-04-04T22:09:01.810Z,54.70
2023-04-04T22:11:28.646Z,54.50
2023-04-04T22:14:17.666Z,54.44
2023-04-04T22:16:44.663Z,56.13
2023-04-04T22:19:11.786Z,56.25
2023-04-04T22:21:38.484Z,57.50
2023-04-04T22:24:05.480Z,57.12
2023-04-04T22:26:33.112Z,56.26
2023-04-04T22:29:04.033Z,56.65
2023-04-04T22:31:31.213Z,56.54
2023-04-04T22:33:57.800Z,57.50
2023-04-04T22:36:24.957Z,57.95
2023-04-04T22:38:56.265Z,57.78
2023-04-04T22:41:26.373Z,57.92
2023-04-04T22:43:52.789Z,58.27
2023-04-04T22:46:19.928Z,58.78
2023-04-04T22:48:46.775Z,60.04
2023-04-04T22:51:15.117Z,59.83
2023-04-04T22:53:43.932Z,59.93
2023-04-04T22:56:10.737Z,59.91
2023-04-04T22:58:37.238Z,61.53
2023-04-04T23:01:03.666Z,59.98
2023-04-04T23:03:31.055Z,61.48
2023-04-04T23:05:57.492Z,62.20
2023-04-04T23:08:23.859Z,62.54
2023-04-04T23:10:50.245Z,62.88
2023-04-04T23:13:16.860Z,62.18
2023-04-04T23:15:44.982Z,63.04
2023-04-04T23:18:12.378Z,64.79
2023-04-04T23:20:39.453Z,64.71
2023-04-04T23:23:06.207Z,64.91
2023-04-04T23:25:32.586Z,63.91
2023-04-04T23:27:59.027Z,62.84
2023-04-04T23:30:25.580Z,63.07
2023-04-04T23:32:52.024Z,65.38
2023-04-04T23:35:18.522Z,64.65
2023-04-04T23:37:45.720Z,63.99
2023-04-04T23:40:12.216Z,63.87
2023-04-04T23:42:38.704Z,63.70
2023-04-04T23:45:05.560Z,63.58
2023-04-04T23:47:32.196Z,64.68
2023-04-04T23:49:58.774Z,65.29
2023-04-04T23:52:25.346Z,65.19
2023-04-04T23:54:51.709Z,64.84
2023-04-04T23:57:18.077Z,66.59
2023-04-04T23:59:44.500Z,67.21
